Time;durP1;ratioP1;P1;durP2;ratioP2;P2;SDS_P1;SDS_P2;PMS_P1;PMS_P2;Temp;Humidity;BMP_temperature;BMP_pressure;BME280_temperature;BME280_humidity;BME280_pressure;Samples;Min_cycle;Max_cycle;Signal;HPM_P1;HPM_P2
2023/03/10 00:02:10;;;;;;;15.17;2.67;;;;;;;;;;4343201;28;10000173;-74
2023/03/10 00:04:38;;;;;;;13.98;2.95;;;;;;;;;;5035867;28;20280;-74
2023/03/10 00:07:10;;;;;;;20.05;3.22;;;;;;;;;;5033210;28;20033;-74
2023/03/10 00:09:43;;;;;;;13.15;2.63;;;;;;;;;;5056674;28;20187;-74
2023/03/10 00:12:13;;;;;;;15.07;3.03;;;;;;;;;;5061315;28;20412;-74
2023/03/10 00:14:44;;;;;;;13.05;2.55;;;;;;;;;;5062154;28;20048;-74
2023/03/10 00:17:14;;;;;;;17.25;3.28;;;;;;;;;;5058739;28;20128;-74
2023/03/10 00:19:45;;;;;;;16.20;3.20;;;;;;;;;;5036047;28;20042;-74
2023/03/10 00:22:16;;;;;;;17.88;2.95;;;;;;;;;;5046029;28;20297;-74
2023/03/10 00:24:47;;;;;;;17.40;3.30;;;;;;;;;;5054645;28;20024;-75
2023/03/10 00:27:18;;;;;;;19.73;3.33;;;;;;;;;;5044724;28;20044;-75
2023/03/10 00:29:52;;;;;;;15.13;3.10;;;;;;;;;;5059682;28;20024;-74
2023/03/10 00:32:19;;;;;;;12.88;3.00;;;;;;;;;;5057349;28;20025;-75
2023/03/10 00:34:48;;;;;;;16.90;3.20;;;;;;;;;;5047619;28;20025;-74
2023/03/10 00:37:20;;;;;;;15.38;2.92;;;;;;;;;;5042391;28;20378;-74
2023/03/10 00:39:55;;;;;;;12.07;2.90;;;;;;;;;;5041463;28;20560;-74
2023/03/10 00:42:21;;;;;;;14.68;2.97;;;;;;;;;;5033294;28;20120;-74
2023/03/10 00:44:51;;;;;;;14.57;2.92;;;;;;;;;;5043752;28;20044;-73
2023/03/10 00:47:22;;;;;;;15.23;3.67;;;;;;;;;;5061869;28;20029;-74
2023/03/10 00:49:56;;;;;;;14.05;2.88;;;;;;;;;;5068530;28;20103;-74
2023/03/10 00:52:26;;;;;;;12.30;3.00;;;;;;;;;;5053098;28;20536;-74
2023/03/10 00:54:55;;;;;;;17.55;3.00;;;;;;;;;;5048247;28;20082;-74
2023/03/10 00:57:25;;;;;;;9.68;2.90;;;;;;;;;;5054872;28;20036;-74
2023/03/10 00:59:58;;;;;;;12.15;2.83;;;;;;;;;;5051633;28;20028;-73
2023/03/10 01:02:26;;;;;;;;;;;;;;;;;;5045573;28;20033;-74
2023/03/10 01:05:00;;;;;;;11.98;2.40;;;;;;;;;;5033246;28;19908;-73
2023/03/10 01:07:30;;;;;;;11.23;2.50;;;;;;;;;;5045353;28;20034;-73
2023/03/10 01:10:02;;;;;;;10.60;2.33;;;;;;;;;;5035620;28;20040;-74
2023/03/10 01:12:30;;;;;;;17.60;2.65;;;;;;;;;;5041653;28;20048;-74
2023/03/10 01:15:02;;;;;;;9.38;2.20;;;;;;;;;;5064280;28;20095;-74
2023/03/10 01:17:32;;;;;;;9.63;2.15;;;;;;;;;;5057106;28;20112;-74
2023/03/10 01:20:08;;;;;;;11.70;2.35;;;;;;;;;;5046495;28;20529;-74
2023/03/10 01:22:35;;;;;;;16.48;3.13;;;;;;;;;;5044203;28;20413;-74
2023/03/10 01:25:06;;;;;;;9.48;2.28;;;;;;;;;;5033806;28;20033;-74
2023/03/10 01:27:33;;;;;;;12.60;2.10;;;;;;;;;;5036099;28;20470;-74
2023/03/10 01:30:01;;;;;;;7.85;1.90;;;;;;;;;;5034577;28;20428;-74
2023/03/10 01:32:37;;;;;;;7.20;1.75;;;;;;;;;;5048131;28;20381;-73
2023/03/10 01:35:07;;;;;;;9.30;2.05;;;;;;;;;;5043709;28;20029;-74
2023/03/10 01:37:36;;;;;;;7.25;1.55;;;;;;;;;;5030844;28;20029;-74
2023/03/10 01:40:04;;;;;;;7.03;1.73;;;;;;;;;;5031424;28;20470;-73
2023/03/10 01:42:34;;;;;;;9.88;2.20;;;;;;;;;;5048907;28;20128;-73
2023/03/10 01:45:09;;;;;;;7.57;1.77;;;;;;;;;;5040261;28;20075;-73
2023/03/10 01:47:37;;;;;;;7.38;1.88;;;;;;;;;;5047636;28;20021;-73
2023/03/10 01:50:07;;;;;;;7.40;1.90;;;;;;;;;;5046084;28;20408;-74
2023/03/10 01:52:35;;;;;;;4.82;1.40;;;;;;;;;;5049213;28;20572;-74
2023/03/10 01:55:11;;;;;;;8.88;2.00;;;;;;;;;;5046602;28;20033;-74
2023/03/10 01:57:43;;;;;;;7.13;1.80;;;;;;;;;;5046066;28;20512;-74
2023/03/10 02:00:13;;;;;;;6.97;1.75;;;;;;;;;;5043660;28;20037;-73
2023/03/10 02:02:48;;;;;;;6.70;1.80;;;;;;;;;;5050240;28;20074;-74
2023/03/10 02:05:18;;;;;;;4.53;1.52;;;;;;;;;;5050458;28;20207;-74
2023/03/10 02:07:45;;;;;;;8.95;1.77;;;;;;;;;;5048267;28;20036;-74
2023/03/10 02:10:15;;;;;;;8.27;1.65;;;;;;;;;;5046340;28;20086;-74
2023/03/10 02:12:42;;;;;;;7.93;1.90;;;;;;;;;;5050925;28;20124;-74
2023/03/10 02:15:12;;;;;;;6.57;1.70;;;;;;;;;;5050636;28;20033;-74
2023/03/10 02:17:43;;;;;;;7.00;1.70;;;;;;;;;;5045854;28;20029;-74
2023/03/10 02:20:23;;;;;;;7.65;1.55;;;;;;;;;;5031470;28;20029;-74
2023/03/10 02:22:53;;;;;;;3.75;1.60;;;;;;;;;;5036022;28;20106;-74
2023/03/10 02:25:35;;;;;;;5.25;1.60;;;;;;;;;;5049456;28;20143;-74
2023/03/10 02:28:01;;;;;;;6.60;1.73;;;;;;;;;;5034258;28;20501;-75
2023/03/10 02:30:32;;;;;;;4.65;1.70;;;;;;;;;;5038430;28;20025;-74
2023/03/10 02:33:04;;;;;;;6.00;1.50;;;;;;;;;;5047023;28;20236;-75
2023/03/10 02:35:35;;;;;;;4.22;1.67;;;;;;;;;;5036358;28;20545;-75
2023/03/10 02:38:05;;;;;;;7.43;1.90;;;;;;;;;;5050334;28;20041;-74
2023/03/10 02:40:40;;;;;;;5.13;1.85;;;;;;;;;;5061998;28;20597;-74
2023/03/10 02:43:16;;;;;;;4.93;1.98;;;;;;;;;;5060070;28;20052;-74
2023/03/10 02:45:48;;;;;;;6.25;1.92;;;;;;;;;;5060288;28;20496;-74
2023/03/10 02:48:17;;;;;;;4.80;1.48;;;;;;;;;;5055783;28;20024;-74
2023/03/10 02:50:48;;;;;;;5.13;1.60;;;;;;;;;;5064193;28;20122;-74
2023/03/10 02:53:20;;;;;;;6.07;1.65;;;;;;;;;;5042010;28;20124;-74
2023/03/10 02:55:51;;;;;;;6.90;1.52;;;;;;;;;;5051139;28;20062;-74
2023/03/10 02:58:18;;;;;;;5.15;1.70;;;;;;;;;;5039757;28;20029;-74
2023/03/10 03:00:51;;;;;;;3.60;1.65;;;;;;;;;;5042807;28;20021;-74
2023/03/10 03:03:18;;;;;;;2.83;1.42;;;;;;;;;;5055938;28;20028;-74
2023/03/10 03:05:50;;;;;;;6.80;1.65;;;;;;;;;;5060169;28;20489;-74
2023/03/10 03:08:18;;;;;;;4.45;1.75;;;;;;;;;;5054061;28;20401;-75
2023/03/10 03:10:50;;;;;;;3.00;1.60;;;;;;;;;;5051618;28;20472;-74
2023/03/10 03:13:19;;;;;;;5.07;1.48;;;;;;;;;;5060376;28;20044;-74
2023/03/10 03:15:50;;;;;;;4.68;1.75;;;;;;;;;;5046337;28;20030;-75
2023/03/10 03:18:20;;;;;;;4.75;1.98;;;;;;;;;;5059403;28;21458;-75
2023/03/10 03:20:49;;;;;;;4.82;1.92;;;;;;;;;;5055536;28;20484;-74
2023/03/10 03:23:17;;;;;;;4.88;2.30;;;;;;;;;;5069436;28;20025;-75
2023/03/10 03:25:49;;;;;;;4.35;1.88;;;;;;;;;;5047619;28;20111;-75
2023/03/10 03:28:17;;;;;;;4.63;1.90;;;;;;;;;;5031646;28;20037;-75
2023/03/10 03:30:46;;;;;;;2.95;1.98;;;;;;;;;;5066951;28;20036;-74
2023/03/10 03:33:17;;;;;;;4.22;1.80;;;;;;;;;;5055190;28;20051;-74
2023/03/10 03:35:49;;;;;;;2.72;2.20;;;;;;;;;;5059948;28;20032;-74
2023/03/10 03:38:20;;;;;;;4.38;2.22;;;;;;;;;;5045828;28;20025;-75
2023/03/10 03:40:53;;;;;;;6.57;2.30;;;;;;;;;;5055203;28;20080;-74
2023/03/10 03:43:26;;;;;;;4.75;2.40;;;;;;;;;;5045104;28;20028;-75
2023/03/10 03:45:57;;;;;;;4.05;2.70;;;;;;;;;;5051402;28;20338;-75
2023/03/10 03:48:28;;;;;;;3.97;2.80;;;;;;;;;;5039157;28;20473;-74
2023/03/10 03:50:59;;;;;;;4.35;2.63;;;;;;;;;;5058043;28;20028;-75
2023/03/10 03:53:32;;;;;;;5.28;3.00;;;;;;;;;;5063855;28;20040;-75
2023/03/10 03:56:09;;;;;;;5.70;3.15;;;;;;;;;;5046345;28;20043;-74
2023/03/10 03:58:36;;;;;;;6.53;3.55;;;;;;;;;;5047983;28;20436;-75
2023/03/10 04:01:12;;;;;;;4.68;3.38;;;;;;;;;;5046926;28;20354;-74
2023/03/10 04:03:38;;;;;;;7.47;3.58;;;;;;;;;;5055803;28;20450;-74
2023/03/10 04:06:15;;;;;;;5.13;3.33;;;;;;;;;;5042930;28;20021;-74
2023/03/10 04:08:42;;;;;;;6.93;3.78;;;;;;;;;;5065759;28;20041;-74
2023/03/10 04:11:14;;;;;;;6.90;3.72;;;;;;;;;;5058127;28;20110;-74
2023/03/10 04:13:40;;;;;;;7.38;4.05;;;;;;;;;;5067234;28;20567;-74
2023/03/10 04:16:09;;;;;;;7.22;4.00;;;;;;;;;;5057312;28;20064;-74
2023/03/10 04:18:38;;;;;;;6.63;4.00;;;;;;;;;;5034705;28;20155;-74
2023/03/10 04:21:07;;;;;;;5.97;3.85;;;;;;;;;;5046694;28;20111;-74
2023/03/10 04:23:34;;;;;;;6.20;3.80;;;;;;;;;;5045594;28;20021;-74
2023/03/10 04:26:06;;;;;;;5.95;3.70;;;;;;;;;;5037000;28;20678;-75
2023/03/10 04:28:38;;;;;;;5.32;3.92;;;;;;;;;;5046253;28;20108;-74
2023/03/10 04:31:17;;;;;;;5.13;4.00;;;;;;;;;;5043627;28;20041;-74
2023/03/10 04:33:45;;;;;;;6.40;3.65;;;;;;;;;;5047949;28;20048;-74
2023/03/10 04:36:11;;;;;;;6.00;3.95;;;;;;;;;;5031861;28;20614;-74
2023/03/10 04:38:46;;;;;;;7.57;4.05;;;;;;;;;;5042400;28;20086;-74
2023/03/10 04:41:12;;;;;;;4.40;3.40;;;;;;;;;;5047623;28;20152;-74
2023/03/10 04:43:44;;;;;;;5.28;3.55;;;;;;;;;;5036458;28;20029;-74
2023/03/10 04:46:15;;;;;;;6.60;3.78;;;;;;;;;;5027786;28;20053;-74
2023/03/10 04:48:47;;;;;;;4.75;3.72;;;;;;;;;;5047450;28;20121;-73
2023/03/10 04:51:23;;;;;;;6.93;3.40;;;;;;;;;;5051543;28;20028;-73
2023/03/10 04:53:52;;;;;;;6.30;3.72;;;;;;;;;;5051012;28;20036;-74
2023/03/10 04:56:24;;;;;;;6.07;3.40;;;;;;;;;;5041830;28;20065;-75
2023/03/10 04:58:53;;;;;;;8.60;3.78;;;;;;;;;;5044008;28;20509;-76
2023/03/10 05:01:28;;;;;;;5.43;3.60;;;;;;;;;;5032739;28;20402;-76
2023/03/10 05:03:56;;;;;;;8.60;3.58;;;;;;;;;;5052347;28;20025;-76
2023/03/10 05:06:30;;;;;;;8.57;3.80;;;;;;;;;;5068595;28;20021;-75
2023/03/10 05:08:59;;;;;;;;;;;;;;;;;;5043840;28;20525;-76
2023/03/10 05:11:32;;;;;;;6.35;3.70;;;;;;;;;;5044259;28;20372;-76
2023/03/10 05:14:01;;;;;;;6.00;3.90;;;;;;;;;;5052876;28;20400;-75
2023/03/10 05:16:32;;;;;;;6.72;4.90;;;;;;;;;;5034818;28;20036;-75
2023/03/10 05:19:02;;;;;;;14.23;7.13;;;;;;;;;;5057113;28;20044;-75
2023/03/10 05:21:33;;;;;;;8.38;4.60;;;;;;;;;;5050836;28;20301;-75
2023/03/10 05:24:04;;;;;;;12.68;7.20;;;;;;;;;;5052229;28;20549;-75
2023/03/10 05:26:34;;;;;;;10.55;4.35;;;;;;;;;;5040074;28;20025;-75
2023/03/10 05:29:06;;;;;;;7.63;3.40;;;;;;;;;;5041471;28;20029;-75
2023/03/10 05:31:36;;;;;;;8.73;3.10;;;;;;;;;;5040764;28;20044;-75
2023/03/10 05:34:06;;;;;;;7.70;3.03;;;;;;;;;;5040001;28;20132;-75
2023/03/10 05:36:39;;;;;;;6.80;3.15;;;;;;;;;;5050490;28;20036;-74
2023/03/10 05:39:10;;;;;;;8.95;3.20;;;;;;;;;;5048346;28;20033;-75
2023/03/10 05:41:39;;;;;;;7.55;3.00;;;;;;;;;;5045705;28;20448;-74
2023/03/10 05:44:10;;;;;;;8.55;2.40;;;;;;;;;;5034199;28;20440;-75
2023/03/10 05:46:44;;;;;;;6.72;2.60;;;;;;;;;;5046834;28;20057;-74
2023/03/10 05:49:13;;;;;;;9.48;3.45;;;;;;;;;;5051029;28;20037;-74
2023/03/10 05:51:44;;;;;;;9.90;3.35;;;;;;;;;;5046581;28;20044;-75
2023/03/10 05:54:15;;;;;;;5.75;2.80;;;;;;;;;;5052654;28;20032;-74
2023/03/10 05:56:41;;;;;;;9.43;3.30;;;;;;;;;;5047748;28;20039;-74
2023/03/10 05:59:11;;;;;;;9.18;3.45;;;;;;;;;;5037247;28;20030;-74
2023/03/10 06:01:38;;;;;;;11.55;6.22;;;;;;;;;;5034421;28;20029;-74
2023/03/10 06:04:07;;;;;;;8.85;3.90;;;;;;;;;;5040648;28;20025;-74
2023/03/10 06:06:37;;;;;;;12.82;6.40;;;;;;;;;;5042418;28;20028;-75
2023/03/10 06:09:06;;;;;;;10.63;4.90;;;;;;;;;;5048842;28;20037;-74
2023/03/10 06:11:37;;;;;;;6.32;2.65;;;;;;;;;;5037538;28;20037;-74
2023/03/10 06:14:03;;;;;;;7.40;2.83;;;;;;;;;;5029163;28;20078;-75
2023/03/10 06:16:29;;;;;;;12.00;3.72;;;;;;;;;;5041340;28;20029;-74
2023/03/10 06:18:56;;;;;;;12.18;4.05;;;;;;;;;;5041807;28;20118;-74
2023/03/10 06:21:24;;;;;;;8.27;2.97;;;;;;;;;;5045097;28;20029;-75
2023/03/10 06:23:51;;;;;;;8.43;2.78;;;;;;;;;;5047722;28;20061;-74
2023/03/10 06:26:17;;;;;;;7.07;2.05;;;;;;;;;;5045009;28;20171;-75
2023/03/10 06:28:45;;;;;;;10.45;2.17;;;;;;;;;;5038392;28;20500;-75
2023/03/10 06:31:16;;;;;;;10.05;2.25;;;;;;;;;;5046225;28;20041;-75
2023/03/10 06:33:43;;;;;;;6.28;1.92;;;;;;;;;;5040163;28;20048;-75
2023/03/10 06:36:16;;;;;;;6.97;2.20;;;;;;;;;;5048122;28;20039;-75
2023/03/10 06:38:43;;;;;;;6.45;1.95;;;;;;;;;;5046141;28;20029;-75
2023/03/10 06:41:09;;;;;;;9.60;2.40;;;;;;;;;;5042856;28;20025;-75
2023/03/10 06:43:35;;;;;;;7.13;2.50;;;;;;;;;;5041735;28;20024;-75
2023/03/10 06:46:04;;;;;;;11.82;3.83;;;;;;;;;;5047018;28;20028;-75
2023/03/10 06:48:31;;;;;;;11.30;2.97;;;;;;;;;;5042806;28;20109;-75
2023/03/10 06:50:57;;;;;;;13.95;3.35;;;;;;;;;;5036997;28;20033;-75
2023/03/10 06:53:24;;;;;;;7.43;1.65;;;;;;;;;;5045223;28;20050;-75
2023/03/10 06:56:04;;;;;;;8.57;2.30;;;;;;;;;;5045377;28;20036;-75
2023/03/10 06:58:31;;;;;;;7.90;2.08;;;;;;;;;;5039322;28;20029;-75
2023/03/10 07:01:00;;;;;;;7.97;1.88;;;;;;;;;;5043641;28;20022;-75
2023/03/10 07:03:29;;;;;;;4.72;1.83;;;;;;;;;;5047041;28;20025;-76
2023/03/10 07:05:58;;;;;;;11.05;2.35;;;;;;;;;;5037578;28;20025;-75
2023/03/10 07:08:24;;;;;;;8.93;2.05;;;;;;;;;;5047930;28;20072;-75
2023/03/10 07:10:51;;;;;;;6.57;2.40;;;;;;;;;;5030817;28;20037;-75
2023/03/10 07:13:21;;;;;;;7.65;3.10;;;;;;;;;;5038288;28;20532;-75
2023/03/10 07:15:48;;;;;;;10.82;2.83;;;;;;;;;;5045760;28;20376;-75
2023/03/10 07:18:15;;;;;;;7.10;2.50;;;;;;;;;;5048930;28;20055;-75
2023/03/10 07:20:43;;;;;;;10.10;3.60;;;;;;;;;;5047466;28;20023;-75
2023/03/10 07:23:11;;;;;;;10.68;2.90;;;;;;;;;;5044170;28;20029;-76
2023/03/10 07:25:39;;;;;;;9.15;2.45;;;;;;;;;;5029048;28;20025;-76
2023/03/10 07:28:05;;;;;;;9.40;2.88;;;;;;;;;;5042093;28;20040;-75
2023/03/10 07:30:32;;;;;;;7.80;2.85;;;;;;;;;;5040740;28;20409;-75
2023/03/10 07:33:00;;;;;;;10.27;3.67;;;;;;;;;;5047887;28;20033;-75
2023/03/10 07:35:27;;;;;;;10.18;4.03;;;;;;;;;;5042894;28;20678;-75
2023/03/10 07:37:55;;;;;;;9.70;3.42;;;;;;;;;;5043354;28;20443;-75
2023/03/10 07:40:23;;;;;;;9.43;2.72;;;;;;;;;;5042945;28;20048;-75
2023/03/10 07:42:50;;;;;;;18.38;6.70;;;;;;;;;;5036060;28;20021;-75
2023/03/10 07:45:17;;;;;;;10.52;4.13;;;;;;;;;;5040015;28;20079;-74
2023/03/10 07:47:46;;;;;;;14.00;3.90;;;;;;;;;;5034461;28;20025;-74
2023/03/10 07:50:14;;;;;;;9.40;4.60;;;;;;;;;;5046940;28;20552;-74
2023/03/10 07:52:42;;;;;;;8.15;4.88;;;;;;;;;;5043429;28;20495;-74
2023/03/10 07:55:13;;;;;;;9.95;3.88;;;;;;;;;;5044410;28;20504;-74
2023/03/10 07:57:40;;;;;;;13.23;3.72;;;;;;;;;;5044335;28;20481;-74
2023/03/10 08:00:07;;;;;;;12.23;4.47;;;;;;;;;;5042635;28;20036;-75
2023/03/10 08:02:33;;;;;;;13.20;4.53;;;;;;;;;;5030710;28;20111;-75
2023/03/10 08:04:59;;;;;;;11.57;6.35;;;;;;;;;;5041130;28;20083;-75
2023/03/10 08:07:26;;;;;;;10.65;4.60;;;;;;;;;;5041538;28;20393;-75
2023/03/10 08:09:53;;;;;;;9.20;3.88;;;;;;;;;;5047011;28;20428;-75
2023/03/10 08:12:20;;;;;;;11.93;4.68;;;;;;;;;;5046575;28;20029;-75
2023/03/10 08:14:47;;;;;;;10.02;3.72;;;;;;;;;;5040508;28;20029;-75
2023/03/10 08:17:13;;;;;;;8.88;3.13;;;;;;;;;;5040728;28;20034;-74
2023/03/10 08:19:39;;;;;;;16.25;6.03;;;;;;;;;;5046194;28;20082;-74
2023/03/10 08:22:09;;;;;;;11.60;4.07;;;;;;;;;;5046154;28;20052;-75
2023/03/10 08:24:38;;;;;;;11.77;3.25;;;;;;;;;;5044364;28;20066;-74
2023/03/10 08:27:06;;;;;;;8.68;3.30;;;;;;;;;;5046148;28;20028;-75
2023/03/10 08:29:32;;;;;;;10.20;3.65;;;;;;;;;;5047303;28;20028;-74
2023/03/10 08:32:01;;;;;;;12.88;4.03;;;;;;;;;;5036522;28;20048;-74
2023/03/10 08:34:31;;;;;;;16.67;5.88;;;;;;;;;;5043324;28;20033;-74
2023/03/10 08:36:59;;;;;;;13.05;4.28;;;;;;;;;;5044362;28;20040;-74
2023/03/10 08:39:25;;;;;;;9.38;5.10;;;;;;;;;;5047104;28;20039;-75
2023/03/10 08:41:54;;;;;;;11.60;6.18;;;;;;;;;;5050474;28;20021;-75
2023/03/10 08:44:24;;;;;;;17.40;7.22;;;;;;;;;;5054251;28;20380;-74
2023/03/10 08:46:53;;;;;;;14.98;6.80;;;;;;;;;;5044965;28;20036;-74
2023/03/10 08:49:24;;;;;;;16.83;8.40;;;;;;;;;;5046051;28;20067;-74
2023/03/10 08:51:58;;;;;;;26.05;9.85;;;;;;;;;;5045103;28;20052;-74
2023/03/10 08:54:32;;;;;;;19.65;6.60;;;;;;;;;;5042901;28;20046;-74
2023/03/10 08:57:00;;;;;;;12.52;4.60;;;;;;;;;;5038899;28;20561;-75
2023/03/10 08:59:26;;;;;;;21.33;7.70;;;;;;;;;;5033557;28;20044;-74
2023/03/10 09:01:57;;;;;;;14.38;4.72;;;;;;;;;;5043380;28;20029;-73
2023/03/10 09:04:27;;;;;;;11.88;5.00;;;;;;;;;;5041244;28;20021;-73
2023/03/10 09:06:54;;;;;;;10.88;4.60;;;;;;;;;;5039925;28;20454;-74
2023/03/10 09:09:24;;;;;;;11.82;3.90;;;;;;;;;;5047553;28;20493;-74
2023/03/10 09:11:50;;;;;;;13.23;6.90;;;;;;;;;;5036645;28;20029;-74
2023/03/10 09:14:18;;;;;;;9.60;4.40;;;;;;;;;;5039623;28;20033;-75
2023/03/10 09:16:48;;;;;;;9.80;4.82;;;;;;;;;;5046843;28;20511;-75
2023/03/10 09:19:16;;;;;;;9.18;3.13;;;;;;;;;;5050130;28;20029;-75
2023/03/10 09:21:48;;;;;;;10.65;3.97;;;;;;;;;;5047048;28;20033;-75
2023/03/10 09:24:19;;;;;;;10.73;4.82;;;;;;;;;;5040031;28;20037;-75
2023/03/10 09:26:46;;;;;;;12.70;5.63;;;;;;;;;;5049009;28;20033;-75
2023/03/10 09:29:15;;;;;;;9.50;4.00;;;;;;;;;;5046928;28;20041;-75
2023/03/10 09:31:43;;;;;;;11.85;3.97;;;;;;;;;;5047964;28;20040;-75
2023/03/10 09:34:10;;;;;;;7.57;2.55;;;;;;;;;;5036285;28;20119;-75
2023/03/10 09:36:42;;;;;;;8.23;2.60;;;;;;;;;;5043968;28;20036;-75
2023/03/10 09:39:08;;;;;;;5.47;2.10;;;;;;;;;;5042356;28;20354;-75
2023/03/10 09:41:48;;;;;;;11.05;3.33;;;;;;;;;;5040638;28;20028;-75
2023/03/10 09:44:14;;;;;;;8.52;2.50;;;;;;;;;;5031953;28;20044;-75
2023/03/10 09:46:40;;;;;;;9.90;2.83;;;;;;;;;;5043577;28;20029;-76
2023/03/10 09:49:17;;;;;;;7.22;2.42;;;;;;;;;;5031255;28;20056;-76
2023/03/10 09:51:50;;;;;;;7.13;2.03;;;;;;;;;;5042431;28;20103;-75
2023/03/10 09:54:36;;;;;;;7.25;2.00;;;;;;;;;;5045229;28;20501;-75
2023/03/10 09:57:13;;;;;;;7.80;2.05;;;;;;;;;;5043729;28;20044;-75
2023/03/10 09:59:45;;;;;;;6.80;2.38;;;;;;;;;;5051057;28;20040;-75
2023/03/10 10:02:20;;;;;;;10.80;2.70;;;;;;;;;;5041526;28;20107;-76
2023/03/10 10:04:55;;;;;;;7.03;2.03;;;;;;;;;;5040147;28;20025;-75
2023/03/10 10:07:23;;;;;;;7.60;2.40;;;;;;;;;;5037707;28;20041;-75
2023/03/10 10:10:03;;;;;;;5.53;1.70;;;;;;;;;;5049145;28;20158;-75
2023/03/10 10:12:32;;;;;;;6.90;1.35;;;;;;;;;;5036643;28;20025;-75
2023/03/10 10:15:09;;;;;;;4.75;1.88;;;;;;;;;;5036070;28;20057;-75
2023/03/10 10:17:54;;;;;;;7.80;2.10;;;;;;;;;;5044189;28;20045;-75
2023/03/10 10:20:28;;;;;;;5.88;2.45;;;;;;;;;;5045505;28;20124;-74
2023/03/10 10:23:02;;;;;;;8.70;3.85;;;;;;;;;;5047990;28;20094;-72
2023/03/10 10:25:31;;;;;;;11.77;3.03;;;;;;;;;;5040901;28;20033;-72
2023/03/10 10:28:04;;;;;;;11.13;5.20;;;;;;;;;;5036424;28;20025;-72
2023/03/10 10:30:30;;;;;;;17.60;6.90;;;;;;;;;;5036283;28;20060;-72
2023/03/10 10:33:00;;;;;;;6.22;2.55;;;;;;;;;;5031367;28;20036;-72
2023/03/10 10:35:32;;;;;;;7.75;2.70;;;;;;;;;;5042403;28;20033;-72
2023/03/10 10:38:19;;;;;;;5.38;2.50;;;;;;;;;;5037719;28;20124;-74
2023/03/10 10:40:52;;;;;;;7.47;2.40;;;;;;;;;;5040739;28;20476;-73
2023/03/10 10:43:21;;;;;;;5.80;2.20;;;;;;;;;;5037862;28;20040;-73
2023/03/10 10:45:55;;;;;;;3.40;1.92;;;;;;;;;;5052286;28;20493;-73
2023/03/10 10:48:24;;;;;;;;;;;;;;;;;;5040880;28;20033;-73
2023/03/10 10:50:59;;;;;;;5.63;2.70;;;;;;;;;;5046944;28;19936;-72
2023/03/10 10:53:33;;;;;;;5.78;2.03;;;;;;;;;;5043399;28;20036;-72
2023/03/10 10:56:11;;;;;;;10.00;3.08;;;;;;;;;;5043923;28;20431;-72
2023/03/10 10:58:44;;;;;;;5.13;2.45;;;;;;;;;;5052516;28;20033;-73
2023/03/10 11:01:12;;;;;;;6.55;1.98;;;;;;;;;;5038531;28;20048;-73
2023/03/10 11:03:46;;;;;;;3.63;1.60;;;;;;;;;;5037785;28;20029;-73
2023/03/10 11:06:27;;;;;;;3.80;1.27;;;;;;;;;;5053543;28;20028;-73
2023/03/10 11:09:12;;;;;;;2.72;0.90;;;;;;;;;;5049667;28;20056;-73
2023/03/10 11:11:46;;;;;;;6.20;1.45;;;;;;;;;;5035923;28;20041;-72
2023/03/10 11:14:26;;;;;;;4.68;1.30;;;;;;;;;;5040278;28;20522;-72
2023/03/10 11:16:58;;;;;;;7.68;1.83;;;;;;;;;;5056012;28;20036;-72
2023/03/10 11:19:44;;;;;;;8.05;3.38;;;;;;;;;;5034850;28;20029;-72
2023/03/10 11:22:20;;;;;;;4.10;1.40;;;;;;;;;;5039084;28;20033;-71
2023/03/10 11:24:53;;;;;;;6.65;2.88;;;;;;;;;;5042511;28;20037;-72
2023/03/10 11:27:33;;;;;;;8.52;4.32;;;;;;;;;;5047794;28;20036;-71
2023/03/10 11:30:06;;;;;;;4.50;2.40;;;;;;;;;;5036151;28;20103;-71
2023/03/10 11:32:45;;;;;;;5.60;3.00;;;;;;;;;;5037144;28;20057;-71
2023/03/10 11:35:34;;;;;;;7.53;3.25;;;;;;;;;;5038857;28;20021;-71
2023/03/10 11:38:08;;;;;;;6.45;2.58;;;;;;;;;;5043731;28;20521;-71
2023/03/10 11:40:48;;;;;;;8.00;2.72;;;;;;;;;;5043416;28;20108;-71
2023/03/10 11:43:23;;;;;;;7.32;2.15;;;;;;;;;;5044952;28;20080;-71
2023/03/10 11:45:53;;;;;;;5.30;1.60;;;;;;;;;;5039050;28;20358;-72
2023/03/10 11:48:41;;;;;;;5.75;2.22;;;;;;;;;;5040555;28;20448;-71
2023/03/10 11:51:14;;;;;;;4.72;1.33;;;;;;;;;;5037042;28;20087;-71
2023/03/10 11:53:52;;;;;;;7.10;1.38;;;;;;;;;;5040493;28;20033;-71
2023/03/10 11:56:22;;;;;;;6.88;1.45;;;;;;;;;;5043179;28;20025;-71
2023/03/10 11:58:57;;;;;;;5.68;1.20;;;;;;;;;;4347942;28;10001059;-71
2023/03/10 12:01:26;;;;;;;4.85;1.27;;;;;;;;;;5045328;28;20072;-71
2023/03/10 12:03:52;;;;;;;7.60;1.23;;;;;;;;;;5038810;28;20491;-71
2023/03/10 12:06:24;;;;;;;9.90;1.92;;;;;;;;;;5047629;28;20024;-71
2023/03/10 12:08:52;;;;;;;5.72;1.40;;;;;;;;;;5045680;28;20029;-71
2023/03/10 12:11:19;;;;;;;5.65;1.70;;;;;;;;;;5048630;28;20140;-71
2023/03/10 12:13:47;;;;;;;7.07;2.10;;;;;;;;;;5047143;28;20025;-71
2023/03/10 12:16:21;;;;;;;7.63;1.90;;;;;;;;;;5050551;28;20067;-71
2023/03/10 12:18:47;;;;;;;7.95;1.30;;;;;;;;;;5041405;28;20040;-72
2023/03/10 12:21:22;;;;;;;6.20;1.50;;;;;;;;;;5040751;28;20382;-73
2023/03/10 12:23:50;;;;;;;6.95;1.40;;;;;;;;;;5045193;28;20219;-71
2023/03/10 12:26:36;;;;;;;5.53;1.75;;;;;;;;;;5042342;28;20475;-71
2023/03/10 12:29:20;;;;;;;9.52;1.85;;;;;;;;;;5040564;28;20037;-70
2023/03/10 12:31:53;;;;;;;6.00;1.45;;;;;;;;;;4688548;28;10000912;-71
2023/03/10 12:34:23;;;;;;;6.88;1.50;;;;;;;;;;5036864;28;20028;-71
2023/03/10 12:36:57;;;;;;;7.22;1.52;;;;;;;;;;5034529;28;20035;-71
2023/03/10 12:39:25;;;;;;;10.30;1.80;;;;;;;;;;5036832;28;20117;-71
2023/03/10 12:41:52;;;;;;;7.18;2.08;;;;;;;;;;5039514;28;20032;-71
2023/03/10 12:44:21;;;;;;;7.68;1.80;;;;;;;;;;5040710;28;20021;-71
2023/03/10 12:47:00;;;;;;;6.03;1.50;;;;;;;;;;5039908;28;20030;-71
2023/03/10 12:49:33;;;;;;;5.50;1.35;;;;;;;;;;5037992;28;20488;-71
2023/03/10 12:52:15;;;;;;;7.68;1.90;;;;;;;;;;5050887;28;20055;-71
2023/03/10 12:54:53;;;;;;;6.22;1.20;;;;;;;;;;5046464;28;20021;-71
2023/03/10 12:57:39;;;;;;;5.95;1.13;;;;;;;;;;5037533;28;20501;-72
2023/03/10 13:00:23;;;;;;;6.15;0.93;;;;;;;;;;5040018;28;20037;-71
2023/03/10 13:02:58;;;;;;;3.63;1.10;;;;;;;;;;5034017;28;20033;-71
2023/03/10 13:05:32;;;;;;;3.03;0.80;;;;;;;;;;5044688;28;20028;-71
2023/03/10 13:08:19;;;;;;;4.07;0.90;;;;;;;;;;5049819;28;20068;-71
2023/03/10 13:10:46;;;;;;;5.70;1.20;;;;;;;;;;5044853;28;20032;-71
2023/03/10 13:13:15;;;;;;;4.68;0.95;;;;;;;;;;5039899;28;20032;-71
2023/03/10 13:15:41;;;;;;;6.97;1.20;;;;;;;;;;5056025;28;20063;-71
2023/03/10 13:18:18;;;;;;;7.55;1.80;;;;;;;;;;5043264;28;20033;-71
2023/03/10 13:20:45;;;;;;;8.73;2.03;;;;;;;;;;5043419;28;20544;-72
2023/03/10 13:23:24;;;;;;;6.47;1.33;;;;;;;;;;5053615;28;20082;-71
2023/03/10 13:25:55;;;;;;;6.38;1.55;;;;;;;;;;5032345;28;20033;-71
2023/03/10 13:28:22;;;;;;;8.20;2.10;;;;;;;;;;5043406;28;20048;-71
2023/03/10 13:30:48;;;;;;;7.28;2.05;;;;;;;;;;5043485;28;20037;-71
2023/03/10 13:33:22;;;;;;;6.97;1.67;;;;;;;;;;5046660;28;20043;-71
2023/03/10 13:35:48;;;;;;;5.65;1.40;;;;;;;;;;5038788;28;20159;-72
2023/03/10 13:38:16;;;;;;;5.80;1.50;;;;;;;;;;5036635;28;20064;-71
2023/03/10 13:40:44;;;;;;;7.43;1.60;;;;;;;;;;5062966;28;20042;-72
2023/03/10 13:43:36;;;;;;;5.20;1.40;;;12.80;99.90;;;;;;5038868;28;20132;-71
2023/03/10 13:46:08;;;;;;;4.43;1.00;;;13.00;99.90;;;;;;5034384;28;20082;-72
2023/03/10 13:48:34;;;;;;;5.88;1.60;;;13.20;99.90;;;;;;5053093;28;20032;-72
2023/03/10 13:51:23;;;;;;;4.93;1.20;;;13.40;99.90;;;;;;5038623;28;20032;-70
2023/03/10 13:53:52;;;;;;;4.18;1.20;;;13.60;99.90;;;;;;5044713;28;20047;-71
2023/03/10 13:56:27;;;;;;;5.03;1.05;;;13.60;99.90;;;;;;5040262;28;20769;-70
2023/03/10 13:58:55;;;;;;;3.67;1.00;;;13.50;99.90;;;;;;5057673;28;20040;-71
2023/03/10 14:01:26;;;;;;;6.13;1.40;;;13.30;99.90;;;;;;5033884;28;20028;-71
2023/03/10 14:04:03;;;;;;;3.80;0.85;;;13.10;99.90;;;;;;5044316;28;20032;-71
2023/03/10 14:06:29;;;;;;;4.28;1.25;;;12.80;99.90;;;;;;5048588;28;20024;-71
2023/03/10 14:08:55;;;;;;;3.17;0.85;;;12.60;99.90;;;;;;5042232;28;20480;-71
2023/03/10 14:11:22;;;;;;;5.03;0.93;;;12.40;99.90;;;;;;5042795;28;20025;-71
2023/03/10 14:13:56;;;;;;;3.60;0.80;;;12.20;99.90;;;;;;5062351;28;20496;-71
2023/03/10 14:16:46;;;;;;;4.32;1.05;;;12.10;99.90;;;;;;5051819;28;20041;-71
2023/03/10 14:19:12;;;;;;;4.88;0.90;;;12.10;99.90;;;;;;5033895;28;20043;-71
2023/03/10 14:21:41;;;;;;;2.78;0.70;;;12.00;99.90;;;;;;5038669;28;20111;-72
2023/03/10 14:24:12;;;;;;;3.08;0.82;;;;;;;;;;5039340;28;20033;-72
2023/03/10 14:26:39;;;;;;;5.28;0.80;;;;;;;;;;5048364;28;20047;-72
2023/03/10 14:29:25;;;;;;;4.50;0.90;;;;;;;;;;5049420;28;20358;-73
2023/03/10 14:31:52;;;;;;;2.50;0.63;;;;;;;;;;5042773;28;20044;-73
2023/03/10 14:34:18;;;;;;;3.25;0.70;;;;;;;;;;5051879;28;20383;-73
2023/03/10 14:36:44;;;;;;;4.55;0.60;;;;;;;;;;5044544;28;20037;-71
2023/03/10 14:39:10;;;;;;;4.20;0.70;;;;;;;;;;5048040;28;20124;-72
2023/03/10 14:41:36;;;;;;;0.77;0.47;;;;;;;;;;5036459;28;20035;-73
2023/03/10 14:44:02;;;;;;;1.33;0.63;;;11.20;99.90;;;;;;5044289;28;20033;-72
2023/03/10 14:46:31;;;;;;;3.28;0.90;;;11.20;99.90;;;;;;5036642;28;20039;-72
2023/03/10 14:48:57;;;;;;;3.05;0.98;;;11.10;99.90;;;;;;5043327;28;20578;-71
2023/03/10 14:51:23;;;;;;;3.40;1.13;;;11.10;99.90;;;;;;5033575;28;20033;-71
2023/03/10 14:53:49;;;;;;;3.72;1.25;;;11.00;99.90;;;;;;5048817;28;20217;-73